sensor_id;sensor_type;location;lat;lon;timestamp;P1;durP1;ratioP1;P2;durP2;ratioP2
7761;SDS011;3925;48.636;9.516;2023-02-17T00:01:09;3.00;;;2.70;;
7761;SDS011;3925;48.636;9.516;2023-02-17T00:03:37;4.40;;;2.70;;
7761;SDS011;3925;48.636;9.516;2023-02-17T00:06:08;3.73;;;2.50;;
7761;SDS011;3925;48.636;9.516;2023-02-17T00:08:36;3.50;;;2.53;;
7761;SDS011;3925;48.636;9.516;2023-02-17T00:11:03;5.23;;;2.70;;
7761;SDS011;3925;48.636;9.516;2023-02-17T00:13:30;4.50;;;2.80;;
7761;SDS011;3925;48.636;9.516;2023-02-17T00:15:58;4.00;;;3.00;;
7761;SDS011;3925;48.636;9.516;2023-02-17T00:18:25;5.33;;;2.90;;
7761;SDS011;3925;48.636;9.516;2023-02-17T00:20:52;4.90;;;3.30;;
7761;SDS011;3925;48.636;9.516;2023-02-17T00:23:20;4.03;;;2.40;;
7761;SDS011;3925;48.636;9.516;2023-02-17T00:25:47;7.90;;;2.87;;
7761;SDS011;3925;48.636;9.516;2023-02-17T00:28:14;4.60;;;3.17;;
7761;SDS011;3925;48.636;9.516;2023-02-17T00:30:41;5.00;;;2.40;;
7761;SDS011;3925;48.636;9.516;2023-02-17T00:33:07;5.70;;;2.93;;
7761;SDS011;3925;48.636;9.516;2023-02-17T00:35:37;3.60;;;2.10;;
7761;SDS011;3925;48.636;9.516;2023-02-17T00:38:05;3.13;;;2.93;;
7761;SDS011;3925;48.636;9.516;2023-02-17T00:40:33;5.60;;;2.53;;
7761;SDS011;3925;48.636;9.516;2023-02-17T00:43:00;3.67;;;2.70;;
7761;SDS011;3925;48.636;9.516;2023-02-17T00:45:27;3.47;;;2.20;;
7761;SDS011;3925;48.636;9.516;2023-02-17T00:47:54;3.57;;;2.30;;
7761;SDS011;3925;48.636;9.516;2023-02-17T00:50:21;2.73;;;2.53;;
7761;SDS011;3925;48.636;9.516;2023-02-17T00:52:47;4.20;;;3.00;;
7761;SDS011;3925;48.636;9.516;2023-02-17T00:55:14;7.00;;;2.57;;
7761;SDS011;3925;48.636;9.516;2023-02-17T00:57:42;4.73;;;2.87;;
7761;SDS011;3925;48.636;9.516;2023-02-17T01:00:10;4.37;;;3.00;;
7761;SDS011;3925;48.636;9.516;2023-02-17T01:02:37;5.60;;;2.60;;
7761;SDS011;3925;48.636;9.516;2023-02-17T01:05:04;6.70;;;2.73;;
7761;SDS011;3925;48.636;9.516;2023-02-17T01:07:32;4.77;;;2.70;;
7761;SDS011;3925;48.636;9.516;2023-02-17T01:10:01;4.97;;;2.40;;
7761;SDS011;3925;48.636;9.516;2023-02-17T01:12:29;6.60;;;2.97;;
7761;SDS011;3925;48.636;9.516;2023-02-17T01:14:57;3.40;;;2.63;;
7761;SDS011;3925;48.636;9.516;2023-02-17T01:17:24;3.63;;;2.70;;
7761;SDS011;3925;48.636;9.516;2023-02-17T01:19:50;4.07;;;2.50;;
7761;SDS011;3925;48.636;9.516;2023-02-17T01:22:17;2.87;;;2.40;;
7761;SDS011;3925;48.636;9.516;2023-02-17T01:24:44;6.60;;;2.73;;
7761;SDS011;3925;48.636;9.516;2023-02-17T01:27:11;4.87;;;2.77;;
7761;SDS011;3925;48.636;9.516;2023-02-17T01:29:38;4.07;;;2.47;;
7761;SDS011;3925;48.636;9.516;2023-02-17T01:32:06;6.67;;;2.80;;
7761;SDS011;3925;48.636;9.516;2023-02-17T01:34:33;6.63;;;2.23;;
7761;SDS011;3925;48.636;9.516;2023-02-17T01:37:00;4.70;;;3.07;;
7761;SDS011;3925;48.636;9.516;2023-02-17T01:39:27;4.40;;;2.50;;
7761;SDS011;3925;48.636;9.516;2023-02-17T01:41:53;2.30;;;1.93;;
7761;SDS011;3925;48.636;9.516;2023-02-17T01:44:23;4.90;;;2.80;;
7761;SDS011;3925;48.636;9.516;2023-02-17T01:46:51;4.53;;;3.60;;
7761;SDS011;3925;48.636;9.516;2023-02-17T01:49:28;4.67;;;2.27;;
7761;SDS011;3925;48.636;9.516;2023-02-17T01:51:59;5.67;;;3.20;;
7761;SDS011;3925;48.636;9.516;2023-02-17T01:54:33;4.70;;;2.90;;
7761;SDS011;3925;48.636;9.516;2023-02-17T01:57:03;4.10;;;2.73;;
7761;SDS011;3925;48.636;9.516;2023-02-17T01:59:30;7.27;;;2.97;;
7761;SDS011;3925;48.636;9.516;2023-02-17T02:01:58;2.70;;;2.50;;
7761;SDS011;3925;48.636;9.516;2023-02-17T02:04:30;4.40;;;2.60;;
7761;SDS011;3925;48.636;9.516;2023-02-17T02:07:00;5.73;;;2.87;;
7761;SDS011;3925;48.636;9.516;2023-02-17T02:09:29;4.23;;;2.53;;
7761;SDS011;3925;48.636;9.516;2023-02-17T02:11:58;7.30;;;2.67;;
7761;SDS011;3925;48.636;9.516;2023-02-17T02:14:25;2.53;;;2.20;;
7761;SDS011;3925;48.636;9.516;2023-02-17T02:16:53;4.47;;;2.30;;
7761;SDS011;3925;48.636;9.516;2023-02-17T02:19:45;3.60;;;2.53;;
7761;SDS011;3925;48.636;9.516;2023-02-17T02:22:39;6.00;;;3.23;;
7761;SDS011;3925;48.636;9.516;2023-02-17T02:25:41;4.07;;;2.90;;
7761;SDS011;3925;48.636;9.516;2023-02-17T02:28:25;5.47;;;2.80;;
7761;SDS011;3925;48.636;9.516;2023-02-17T02:31:13;5.20;;;3.10;;
7761;SDS011;3925;48.636;9.516;2023-02-17T02:33:57;6.10;;;3.10;;
7761;SDS011;3925;48.636;9.516;2023-02-17T02:36:27;5.20;;;3.40;;
7761;SDS011;3925;48.636;9.516;2023-02-17T02:38:57;7.10;;;2.57;;
7761;SDS011;3925;48.636;9.516;2023-02-17T02:41:28;10.93;;;3.70;;
7761;SDS011;3925;48.636;9.516;2023-02-17T02:43:57;4.83;;;3.27;;
7761;SDS011;3925;48.636;9.516;2023-02-17T02:46:24;3.90;;;2.50;;
7761;SDS011;3925;48.636;9.516;2023-02-17T02:48:51;3.63;;;2.50;;
7761;SDS011;3925;48.636;9.516;2023-02-17T02:51:22;7.07;;;3.30;;
7761;SDS011;3925;48.636;9.516;2023-02-17T02:54:05;15.67;;;3.20;;
7761;SDS011;3925;48.636;9.516;2023-02-17T02:59:57;4.10;;;2.60;;
7761;SDS011;3925;48.636;9.516;2023-02-17T03:02:35;4.77;;;2.80;;
7761;SDS011;3925;48.636;9.516;2023-02-17T03:05:10;4.57;;;2.53;;
7761;SDS011;3925;48.636;9.516;2023-02-17T03:07:44;5.13;;;3.17;;
7761;SDS011;3925;48.636;9.516;2023-02-17T03:10:17;4.40;;;2.30;;
7761;SDS011;3925;48.636;9.516;2023-02-17T03:12:45;5.77;;;2.50;;
7761;SDS011;3925;48.636;9.516;2023-02-17T03:15:13;3.93;;;3.47;;
7761;SDS011;3925;48.636;9.516;2023-02-17T03:17:43;7.30;;;2.40;;
7761;SDS011;3925;48.636;9.516;2023-02-17T03:20:11;5.13;;;2.83;;
7761;SDS011;3925;48.636;9.516;2023-02-17T03:22:40;3.33;;;2.77;;
7761;SDS011;3925;48.636;9.516;2023-02-17T03:25:10;7.60;;;3.17;;
7761;SDS011;3925;48.636;9.516;2023-02-17T03:27:37;3.70;;;2.60;;
7761;SDS011;3925;48.636;9.516;2023-02-17T03:30:04;4.53;;;2.07;;
7761;SDS011;3925;48.636;9.516;2023-02-17T03:32:33;2.43;;;2.23;;
7761;SDS011;3925;48.636;9.516;2023-02-17T03:35:00;3.53;;;2.37;;
7761;SDS011;3925;48.636;9.516;2023-02-17T03:37:27;2.60;;;2.40;;
7761;SDS011;3925;48.636;9.516;2023-02-17T03:39:55;5.57;;;2.67;;
7761;SDS011;3925;48.636;9.516;2023-02-17T03:42:22;5.63;;;2.87;;
7761;SDS011;3925;48.636;9.516;2023-02-17T03:44:49;2.53;;;2.30;;
7761;SDS011;3925;48.636;9.516;2023-02-17T03:47:16;3.60;;;2.70;;
7761;SDS011;3925;48.636;9.516;2023-02-17T03:49:43;5.03;;;2.57;;
7761;SDS011;3925;48.636;9.516;2023-02-17T03:52:10;5.63;;;2.93;;
7761;SDS011;3925;48.636;9.516;2023-02-17T03:54:36;5.47;;;3.30;;
7761;SDS011;3925;48.636;9.516;2023-02-17T03:57:05;6.23;;;2.93;;
7761;SDS011;3925;48.636;9.516;2023-02-17T03:59:31;4.47;;;3.07;;
7761;SDS011;3925;48.636;9.516;2023-02-17T04:01:58;3.77;;;2.53;;
7761;SDS011;3925;48.636;9.516;2023-02-17T04:04:25;3.07;;;2.80;;
7761;SDS011;3925;48.636;9.516;2023-02-17T04:06:52;3.93;;;2.63;;
7761;SDS011;3925;48.636;9.516;2023-02-17T04:09:19;3.87;;;2.53;;
7761;SDS011;3925;48.636;9.516;2023-02-17T04:11:46;3.27;;;2.23;;
7761;SDS011;3925;48.636;9.516;2023-02-17T04:14:14;4.20;;;2.40;;
7761;SDS011;3925;48.636;9.516;2023-02-17T04:16:41;6.40;;;3.07;;
7761;SDS011;3925;48.636;9.516;2023-02-17T04:19:09;2.90;;;2.60;;
7761;SDS011;3925;48.636;9.516;2023-02-17T04:21:36;3.87;;;2.97;;
7761;SDS011;3925;48.636;9.516;2023-02-17T04:24:03;6.97;;;2.43;;
7761;SDS011;3925;48.636;9.516;2023-02-17T04:26:30;3.47;;;2.30;;
7761;SDS011;3925;48.636;9.516;2023-02-17T04:28:57;8.63;;;3.10;;
7761;SDS011;3925;48.636;9.516;2023-02-17T04:31:25;6.57;;;2.70;;
7761;SDS011;3925;48.636;9.516;2023-02-17T04:33:52;4.97;;;3.27;;
7761;SDS011;3925;48.636;9.516;2023-02-17T04:36:19;7.90;;;3.47;;
7761;SDS011;3925;48.636;9.516;2023-02-17T04:38:46;2.40;;;2.20;;
7761;SDS011;3925;48.636;9.516;2023-02-17T04:41:14;4.57;;;2.30;;
7761;SDS011;3925;48.636;9.516;2023-02-17T04:43:40;2.50;;;2.17;;
7761;SDS011;3925;48.636;9.516;2023-02-17T04:46:07;6.43;;;2.50;;
7761;SDS011;3925;48.636;9.516;2023-02-17T04:48:37;2.40;;;2.13;;
7761;SDS011;3925;48.636;9.516;2023-02-17T04:51:04;2.73;;;2.10;;
7761;SDS011;3925;48.636;9.516;2023-02-17T04:53:31;4.13;;;2.63;;
7761;SDS011;3925;48.636;9.516;2023-02-17T04:55:58;3.00;;;2.07;;
7761;SDS011;3925;48.636;9.516;2023-02-17T04:58:25;9.87;;;2.00;;
7761;SDS011;3925;48.636;9.516;2023-02-17T05:00:51;2.70;;;2.00;;
7761;SDS011;3925;48.636;9.516;2023-02-17T05:03:18;3.90;;;2.10;;
7761;SDS011;3925;48.636;9.516;2023-02-17T05:05:46;5.10;;;2.37;;
7761;SDS011;3925;48.636;9.516;2023-02-17T05:08:14;1.80;;;1.70;;
7761;SDS011;3925;48.636;9.516;2023-02-17T05:10:41;2.40;;;2.20;;
7761;SDS011;3925;48.636;9.516;2023-02-17T05:13:08;3.03;;;2.20;;
7761;SDS011;3925;48.636;9.516;2023-02-17T05:15:35;2.20;;;1.93;;
7761;SDS011;3925;48.636;9.516;2023-02-17T05:18:02;3.03;;;2.20;;
7761;SDS011;3925;48.636;9.516;2023-02-17T05:20:29;2.83;;;2.53;;
7761;SDS011;3925;48.636;9.516;2023-02-17T05:22:58;2.00;;;1.80;;
7761;SDS011;3925;48.636;9.516;2023-02-17T05:25:25;2.87;;;2.40;;
7761;SDS011;3925;48.636;9.516;2023-02-17T05:27:52;3.17;;;2.13;;
7761;SDS011;3925;48.636;9.516;2023-02-17T05:30:18;6.07;;;2.40;;
7761;SDS011;3925;48.636;9.516;2023-02-17T05:32:45;2.43;;;2.20;;
7761;SDS011;3925;48.636;9.516;2023-02-17T05:35:12;2.73;;;2.53;;
7761;SDS011;3925;48.636;9.516;2023-02-17T05:37:39;3.87;;;2.47;;
7761;SDS011;3925;48.636;9.516;2023-02-17T05:40:08;3.53;;;1.80;;
7761;SDS011;3925;48.636;9.516;2023-02-17T05:42:35;4.50;;;3.70;;
7761;SDS011;3925;48.636;9.516;2023-02-17T05:45:02;3.40;;;2.17;;
7761;SDS011;3925;48.636;9.516;2023-02-17T05:47:29;3.13;;;2.30;;
7761;SDS011;3925;48.636;9.516;2023-02-17T05:49:56;2.37;;;2.17;;
7761;SDS011;3925;48.636;9.516;2023-02-17T05:52:23;5.13;;;2.30;;
7761;SDS011;3925;48.636;9.516;2023-02-17T05:54:50;4.50;;;1.77;;
7761;SDS011;3925;48.636;9.516;2023-02-17T05:57:18;3.30;;;2.30;;
7761;SDS011;3925;48.636;9.516;2023-02-17T05:59:45;3.13;;;2.33;;
7761;SDS011;3925;48.636;9.516;2023-02-17T06:02:12;3.63;;;1.80;;
7761;SDS011;3925;48.636;9.516;2023-02-17T06:04:38;2.73;;;1.80;;
7761;SDS011;3925;48.636;9.516;2023-02-17T06:07:05;6.53;;;2.30;;
7761;SDS011;3925;48.636;9.516;2023-02-17T06:09:32;4.00;;;2.13;;
7761;SDS011;3925;48.636;9.516;2023-02-17T06:11:59;3.40;;;1.87;;
7761;SDS011;3925;48.636;9.516;2023-02-17T06:14:27;5.27;;;1.87;;
7761;SDS011;3925;48.636;9.516;2023-02-17T06:16:54;3.33;;;2.20;;
7761;SDS011;3925;48.636;9.516;2023-02-17T06:19:22;2.70;;;2.47;;
7761;SDS011;3925;48.636;9.516;2023-02-17T06:21:49;2.27;;;1.70;;
7761;SDS011;3925;48.636;9.516;2023-02-17T06:24:16;2.20;;;1.83;;
7761;SDS011;3925;48.636;9.516;2023-02-17T06:26:43;3.07;;;1.57;;
7761;SDS011;3925;48.636;9.516;2023-02-17T06:29:10;2.27;;;1.93;;
7761;SDS011;3925;48.636;9.516;2023-02-17T06:31:38;4.83;;;1.57;;
7761;SDS011;3925;48.636;9.516;2023-02-17T06:34:05;2.93;;;1.80;;
7761;SDS011;3925;48.636;9.516;2023-02-17T06:36:32;2.20;;;1.60;;
7761;SDS011;3925;48.636;9.516;2023-02-17T06:38:58;2.27;;;1.77;;
7761;SDS011;3925;48.636;9.516;2023-02-17T06:41:25;1.50;;;1.40;;
7761;SDS011;3925;48.636;9.516;2023-02-17T06:43:52;3.20;;;1.67;;
7761;SDS011;3925;48.636;9.516;2023-02-17T06:46:19;7.90;;;1.80;;
7761;SDS011;3925;48.636;9.516;2023-02-17T06:48:47;3.03;;;1.83;;
7761;SDS011;3925;48.636;9.516;2023-02-17T06:51:14;1.77;;;1.50;;
7761;SDS011;3925;48.636;9.516;2023-02-17T06:53:41;1.80;;;1.60;;
7761;SDS011;3925;48.636;9.516;2023-02-17T06:56:08;2.03;;;1.27;;
7761;SDS011;3925;48.636;9.516;2023-02-17T06:58:35;3.03;;;1.90;;
7761;SDS011;3925;48.636;9.516;2023-02-17T07:01:02;2.43;;;1.70;;
7761;SDS011;3925;48.636;9.516;2023-02-17T07:03:30;3.40;;;1.87;;
7761;SDS011;3925;48.636;9.516;2023-02-17T07:05:58;1.87;;;1.60;;
7761;SDS011;3925;48.636;9.516;2023-02-17T07:08:25;2.20;;;1.53;;
7761;SDS011;3925;48.636;9.516;2023-02-17T07:10:52;2.10;;;1.63;;
7761;SDS011;3925;48.636;9.516;2023-02-17T07:13:19;2.67;;;1.73;;
7761;SDS011;3925;48.636;9.516;2023-02-17T07:15:46;4.83;;;1.80;;
7761;SDS011;3925;48.636;9.516;2023-02-17T07:18:13;3.50;;;1.70;;
7761;SDS011;3925;48.636;9.516;2023-02-17T07:20:39;2.70;;;2.10;;
7761;SDS011;3925;48.636;9.516;2023-02-17T07:23:08;4.00;;;1.67;;
7761;SDS011;3925;48.636;9.516;2023-02-17T07:25:34;1.80;;;1.70;;
7761;SDS011;3925;48.636;9.516;2023-02-17T07:28:01;4.10;;;2.33;;
7761;SDS011;3925;48.636;9.516;2023-02-17T07:30:31;3.80;;;1.90;;
7761;SDS011;3925;48.636;9.516;2023-02-17T07:33:01;2.10;;;1.90;;
7761;SDS011;3925;48.636;9.516;2023-02-17T07:35:28;3.53;;;2.00;;
7761;SDS011;3925;48.636;9.516;2023-02-17T07:37:55;6.93;;;2.60;;
7761;SDS011;3925;48.636;9.516;2023-02-17T07:40:24;6.80;;;2.70;;
7761;SDS011;3925;48.636;9.516;2023-02-17T07:42:51;2.47;;;1.90;;
7761;SDS011;3925;48.636;9.516;2023-02-17T07:45:18;3.50;;;2.03;;
7761;SDS011;3925;48.636;9.516;2023-02-17T07:47:45;2.17;;;1.90;;
7761;SDS011;3925;48.636;9.516;2023-02-17T07:50:12;3.50;;;2.40;;
7761;SDS011;3925;48.636;9.516;2023-02-17T07:52:39;3.60;;;2.30;;
7761;SDS011;3925;48.636;9.516;2023-02-17T07:55:06;4.73;;;2.23;;
7761;SDS011;3925;48.636;9.516;2023-02-17T07:57:35;4.00;;;2.10;;
7761;SDS011;3925;48.636;9.516;2023-02-17T08:00:02;2.30;;;2.10;;
7761;SDS011;3925;48.636;9.516;2023-02-17T08:02:30;3.50;;;2.30;;
7761;SDS011;3925;48.636;9.516;2023-02-17T08:04:57;5.10;;;1.83;;
7761;SDS011;3925;48.636;9.516;2023-02-17T08:07:24;2.37;;;2.10;;
7761;SDS011;3925;48.636;9.516;2023-02-17T08:09:51;7.80;;;2.27;;
7761;SDS011;3925;48.636;9.516;2023-02-17T08:12:39;7.30;;;2.23;;
7761;SDS011;3925;48.636;9.516;2023-02-17T08:15:31;2.70;;;1.90;;
7761;SDS011;3925;48.636;9.516;2023-02-17T08:17:58;4.37;;;2.17;;
7761;SDS011;3925;48.636;9.516;2023-02-17T08:20:26;8.33;;;2.10;;
7761;SDS011;3925;48.636;9.516;2023-02-17T08:22:56;4.43;;;2.43;;
7761;SDS011;3925;48.636;9.516;2023-02-17T08:25:23;2.23;;;2.03;;
7761;SDS011;3925;48.636;9.516;2023-02-17T08:27:51;3.00;;;1.90;;
7761;SDS011;3925;48.636;9.516;2023-02-17T08:30:19;3.00;;;1.87;;
7761;SDS011;3925;48.636;9.516;2023-02-17T08:32:46;4.53;;;2.47;;
7761;SDS011;3925;48.636;9.516;2023-02-17T08:35:13;3.10;;;2.37;;
7761;SDS011;3925;48.636;9.516;2023-02-17T08:37:41;3.50;;;1.80;;
7761;SDS011;3925;48.636;9.516;2023-02-17T08:40:08;1.90;;;1.63;;
7761;SDS011;3925;48.636;9.516;2023-02-17T08:42:36;4.40;;;2.50;;
7761;SDS011;3925;48.636;9.516;2023-02-17T08:45:04;7.00;;;3.20;;
7761;SDS011;3925;48.636;9.516;2023-02-17T08:47:32;3.30;;;1.87;;
7761;SDS011;3925;48.636;9.516;2023-02-17T08:49:59;1.87;;;1.67;;
7761;SDS011;3925;48.636;9.516;2023-02-17T08:52:26;2.80;;;1.70;;
7761;SDS011;3925;48.636;9.516;2023-02-17T08:54:53;3.17;;;2.00;;
7761;SDS011;3925;48.636;9.516;2023-02-17T08:57:20;2.03;;;1.70;;
7761;SDS011;3925;48.636;9.516;2023-02-17T08:59:47;2.80;;;1.80;;
7761;SDS011;3925;48.636;9.516;2023-02-17T09:02:16;2.93;;;2.07;;
7761;SDS011;3925;48.636;9.516;2023-02-17T09:04:44;2.40;;;1.60;;
7761;SDS011;3925;48.636;9.516;2023-02-17T09:07:12;2.40;;;2.20;;
7761;SDS011;3925;48.636;9.516;2023-02-17T09:09:40;2.30;;;1.87;;
7761;SDS011;3925;48.636;9.516;2023-02-17T09:12:07;2.80;;;1.80;;
7761;SDS011;3925;48.636;9.516;2023-02-17T09:14:34;5.63;;;1.90;;
7761;SDS011;3925;48.636;9.516;2023-02-17T09:17:01;2.50;;;1.97;;
7761;SDS011;3925;48.636;9.516;2023-02-17T09:19:30;4.97;;;2.10;;
7761;SDS011;3925;48.636;9.516;2023-02-17T09:21:57;2.47;;;1.70;;
7761;SDS011;3925;48.636;9.516;2023-02-17T09:24:24;3.70;;;2.00;;
7761;SDS011;3925;48.636;9.516;2023-02-17T09:26:51;3.70;;;2.30;;
7761;SDS011;3925;48.636;9.516;2023-02-17T09:29:18;4.00;;;1.97;;
7761;SDS011;3925;48.636;9.516;2023-02-17T09:31:45;2.70;;;2.03;;
7761;SDS011;3925;48.636;9.516;2023-02-17T09:34:13;3.60;;;1.90;;
7761;SDS011;3925;48.636;9.516;2023-02-17T09:36:41;2.50;;;2.33;;
7761;SDS011;3925;48.636;9.516;2023-02-17T09:39:08;4.23;;;1.83;;
7761;SDS011;3925;48.636;9.516;2023-02-17T09:41:38;3.60;;;1.60;;
7761;SDS011;3925;48.636;9.516;2023-02-17T09:44:13;2.20;;;1.47;;
7761;SDS011;3925;48.636;9.516;2023-02-17T09:46:46;2.67;;;1.83;;
7761;SDS011;3925;48.636;9.516;2023-02-17T09:49:18;2.23;;;1.60;;
7761;SDS011;3925;48.636;9.516;2023-02-17T09:51:50;3.90;;;1.73;;
7761;SDS011;3925;48.636;9.516;2023-02-17T09:54:26;3.83;;;2.03;;
7761;SDS011;3925;48.636;9.516;2023-02-17T09:56:57;3.50;;;1.50;;
7761;SDS011;3925;48.636;9.516;2023-02-17T09:59:26;4.20;;;2.00;;
7761;SDS011;3925;48.636;9.516;2023-02-17T10:01:58;1.47;;;1.37;;
7761;SDS011;3925;48.636;9.516;2023-02-17T10:04:33;2.17;;;1.80;;
7761;SDS011;3925;48.636;9.516;2023-02-17T10:07:06;2.03;;;1.83;;
7761;SDS011;3925;48.636;9.516;2023-02-17T10:09:38;2.50;;;1.83;;
7761;SDS011;3925;48.636;9.516;2023-02-17T10:12:14;4.83;;;2.17;;
7761;SDS011;3925;48.636;9.516;2023-02-17T10:14:45;2.70;;;1.83;;
7761;SDS011;3925;48.636;9.516;2023-02-17T10:17:19;4.10;;;1.90;;
7761;SDS011;3925;48.636;9.516;2023-02-17T10:19:51;1.40;;;1.30;;
7761;SDS011;3925;48.636;9.516;2023-02-17T10:22:23;3.07;;;1.37;;
7761;SDS011;3925;48.636;9.516;2023-02-17T10:24:51;4.23;;;1.60;;
7761;SDS011;3925;48.636;9.516;2023-02-17T10:27:22;1.67;;;1.57;;
7761;SDS011;3925;48.636;9.516;2023-02-17T10:29:59;3.60;;;1.90;;
7761;SDS011;3925;48.636;9.516;2023-02-17T10:32:42;3.60;;;1.50;;
7761;SDS011;3925;48.636;9.516;2023-02-17T10:35:17;2.60;;;1.43;;
7761;SDS011;3925;48.636;9.516;2023-02-17T10:37:52;2.00;;;1.30;;
7761;SDS011;3925;48.636;9.516;2023-02-17T10:40:27;1.80;;;1.70;;
7761;SDS011;3925;48.636;9.516;2023-02-17T10:42:55;1.33;;;1.23;;
7761;SDS011;3925;48.636;9.516;2023-02-17T10:45:26;1.93;;;1.73;;
7761;SDS011;3925;48.636;9.516;2023-02-17T10:47:57;2.20;;;1.10;;
7761;SDS011;3925;48.636;9.516;2023-02-17T10:50:28;3.80;;;1.83;;
7761;SDS011;3925;48.636;9.516;2023-02-17T10:52:58;2.40;;;2.10;;
7761;SDS011;3925;48.636;9.516;2023-02-17T10:55:29;1.53;;;1.43;;
7761;SDS011;3925;48.636;9.516;2023-02-17T10:58:02;2.60;;;1.77;;
7761;SDS011;3925;48.636;9.516;2023-02-17T11:00:31;1.20;;;1.10;;
7761;SDS011;3925;48.636;9.516;2023-02-17T11:02:58;4.63;;;2.00;;
7761;SDS011;3925;48.636;9.516;2023-02-17T11:05:26;3.50;;;1.47;;
7761;SDS011;3925;48.636;9.516;2023-02-17T11:07:57;4.00;;;1.80;;
7761;SDS011;3925;48.636;9.516;2023-02-17T11:10:27;2.37;;;1.20;;
7761;SDS011;3925;48.636;9.516;2023-02-17T11:12:56;1.33;;;0.90;;
7761;SDS011;3925;48.636;9.516;2023-02-17T11:15:25;1.60;;;1.00;;
7761;SDS011;3925;48.636;9.516;2023-02-17T11:17:54;1.47;;;1.00;;
7761;SDS011;3925;48.636;9.516;2023-02-17T11:20:27;0.80;;;0.80;;
7761;SDS011;3925;48.636;9.516;2023-02-17T11:23:01;5.13;;;3.10;;
7761;SDS011;3925;48.636;9.516;2023-02-17T11:25:30;1.07;;;1.03;;
7761;SDS011;3925;48.636;9.516;2023-02-17T11:28:00;2.33;;;1.20;;
7761;SDS011;3925;48.636;9.516;2023-02-17T11:30:30;1.40;;;0.90;;
7761;SDS011;3925;48.636;9.516;2023-02-17T11:33:09;1.87;;;1.30;;
7761;SDS011;3925;48.636;9.516;2023-02-17T11:35:43;2.93;;;1.10;;
7761;SDS011;3925;48.636;9.516;2023-02-17T11:38:18;1.27;;;0.90;;
7761;SDS011;3925;48.636;9.516;2023-02-17T11:40:54;4.23;;;1.50;;
7761;SDS011;3925;48.636;9.516;2023-02-17T11:43:22;3.63;;;1.10;;
7761;SDS011;3925;48.636;9.516;2023-02-17T11:45:59;1.13;;;0.87;;
7761;SDS011;3925;48.636;9.516;2023-02-17T11:48:46;5.70;;;1.53;;
7761;SDS011;3925;48.636;9.516;2023-02-17T11:51:27;2.10;;;1.40;;
7761;SDS011;3925;48.636;9.516;2023-02-17T11:54:04;1.00;;;1.00;;
7761;SDS011;3925;48.636;9.516;2023-02-17T11:56:45;2.27;;;1.40;;
7761;SDS011;3925;48.636;9.516;2023-02-17T11:59:26;1.40;;;1.20;;
7761;SDS011;3925;48.636;9.516;2023-02-17T12:02:04;2.10;;;1.10;;
7761;SDS011;3925;48.636;9.516;2023-02-17T12:04:53;2.10;;;1.63;;
7761;SDS011;3925;48.636;9.516;2023-02-17T12:07:35;1.03;;;0.93;;
7761;SDS011;3925;48.636;9.516;2023-02-17T12:10:12;1.50;;;1.40;;
7761;SDS011;3925;48.636;9.516;2023-02-17T12:12:54;2.23;;;0.97;;
7761;SDS011;3925;48.636;9.516;2023-02-17T12:15:34;2.90;;;0.67;;
7761;SDS011;3925;48.636;9.516;2023-02-17T12:18:13;1.33;;;1.00;;
7761;SDS011;3925;48.636;9.516;2023-02-17T12:20:53;2.77;;;1.20;;
7761;SDS011;3925;48.636;9.516;2023-02-17T12:23:36;1.57;;;1.20;;
7761;SDS011;3925;48.636;9.516;2023-02-17T12:26:19;1.83;;;1.20;;
7761;SDS011;3925;48.636;9.516;2023-02-17T12:28:59;1.37;;;0.83;;
7761;SDS011;3925;48.636;9.516;2023-02-17T12:31:42;1.63;;;0.90;;
7761;SDS011;3925;48.636;9.516;2023-02-17T12:34:23;1.23;;;1.13;;
7761;SDS011;3925;48.636;9.516;2023-02-17T12:36:55;2.23;;;1.10;;
7761;SDS011;3925;48.636;9.516;2023-02-17T12:39:23;2.77;;;1.17;;
7761;SDS011;3925;48.636;9.516;2023-02-17T12:41:57;1.60;;;1.30;;
7761;SDS011;3925;48.636;9.516;2023-02-17T12:44:28;1.10;;;1.03;;
7761;SDS011;3925;48.636;9.516;2023-02-17T12:46:58;1.17;;;1.10;;
7761;SDS011;3925;48.636;9.516;2023-02-17T12:49:29;2.67;;;1.10;;
7761;SDS011;3925;48.636;9.516;2023-02-17T12:52:03;2.10;;;1.07;;
7761;SDS011;3925;48.636;9.516;2023-02-17T12:54:34;5.33;;;1.37;;
7761;SDS011;3925;48.636;9.516;2023-02-17T12:57:16;1.00;;;1.00;;
7761;SDS011;3925;48.636;9.516;2023-02-17T12:59:47;1.23;;;1.13;;
7761;SDS011;3925;48.636;9.516;2023-02-17T13:02:16;1.17;;;1.10;;
7761;SDS011;3925;48.636;9.516;2023-02-17T13:04:46;1.13;;;1.00;;
7761;SDS011;3925;48.636;9.516;2023-02-17T13:07:20;1.00;;;0.93;;
7761;SDS011;3925;48.636;9.516;2023-02-17T13:10:17;1.23;;;1.23;;
7761;SDS011;3925;48.636;9.516;2023-02-17T13:12:55;0.87;;;0.87;;
7761;SDS011;3925;48.636;9.516;2023-02-17T13:15:29;1.27;;;1.10;;
7761;SDS011;3925;48.636;9.516;2023-02-17T13:17:59;1.47;;;1.37;;
7761;SDS011;3925;48.636;9.516;2023-02-17T13:20:36;1.27;;;1.10;;
7761;SDS011;3925;48.636;9.516;2023-02-17T13:23:10;0.90;;;0.90;;
7761;SDS011;3925;48.636;9.516;2023-02-17T13:25:39;1.00;;;1.00;;
7761;SDS011;3925;48.636;9.516;2023-02-17T13:28:18;1.67;;;1.00;;
7761;SDS011;3925;48.636;9.516;2023-02-17T13:31:07;2.57;;;1.30;;
7761;SDS011;3925;48.636;9.516;2023-02-17T13:33:41;1.07;;;1.00;;
7761;SDS011;3925;48.636;9.516;2023-02-17T13:36:11;1.00;;;0.90;;
7761;SDS011;3925;48.636;9.516;2023-02-17T13:38:39;0.73;;;0.73;;
7761;SDS011;3925;48.636;9.516;2023-02-17T13:41:19;1.07;;;1.07;;
7761;SDS011;3925;48.636;9.516;2023-02-17T13:43:47;1.33;;;0.70;;
7761;SDS011;3925;48.636;9.516;2023-02-17T13:46:15;0.83;;;0.83;;
7761;SDS011;3925;48.636;9.516;2023-02-17T13:48:56;1.37;;;1.27;;
7761;SDS011;3925;48.636;9.516;2023-02-17T13:51:26;1.27;;;1.00;;
7761;SDS011;3925;48.636;9.516;2023-02-17T13:53:54;1.20;;;1.10;;
7761;SDS011;3925;48.636;9.516;2023-02-17T13:56:24;0.77;;;0.70;;
7761;SDS011;3925;48.636;9.516;2023-02-17T13:58:54;1.70;;;1.20;;
7761;SDS011;3925;48.636;9.516;2023-02-17T14:01:33;1.33;;;1.10;;
7761;SDS011;3925;48.636;9.516;2023-02-17T14:04:02;1.10;;;0.70;;
7761;SDS011;3925;48.636;9.516;2023-02-17T14:06:31;1.30;;;0.90;;
7761;SDS011;3925;48.636;9.516;2023-02-17T14:09:10;0.80;;;0.80;;
7761;SDS011;3925;48.636;9.516;2023-02-17T14:11:38;0.90;;;0.90;;
7761;SDS011;3925;48.636;9.516;2023-02-17T14:14:07;3.80;;;1.20;;
7761;SDS011;3925;48.636;9.516;2023-02-17T14:16:36;1.27;;;0.80;;
7761;SDS011;3925;48.636;9.516;2023-02-17T14:19:06;0.80;;;0.80;;
7761;SDS011;3925;48.636;9.516;2023-02-17T14:21:34;0.80;;;0.80;;
7761;SDS011;3925;48.636;9.516;2023-02-17T14:24:03;1.03;;;1.03;;
7761;SDS011;3925;48.636;9.516;2023-02-17T14:26:31;1.13;;;1.03;;
7761;SDS011;3925;48.636;9.516;2023-02-17T14:29:03;0.90;;;0.90;;
7761;SDS011;3925;48.636;9.516;2023-02-17T14:31:37;1.43;;;0.90;;
7761;SDS011;3925;48.636;9.516;2023-02-17T14:34:05;0.93;;;0.80;;
7761;SDS011;3925;48.636;9.516;2023-02-17T14:36:33;1.07;;;0.87;;
7761;SDS011;3925;48.636;9.516;2023-02-17T14:39:02;1.77;;;1.13;;
7761;SDS011;3925;48.636;9.516;2023-02-17T14:41:30;3.93;;;0.93;;
7761;SDS011;3925;48.636;9.516;2023-02-17T14:43:57;1.67;;;1.00;;
7761;SDS011;3925;48.636;9.516;2023-02-17T14:46:25;0.73;;;0.60;;
7761;SDS011;3925;48.636;9.516;2023-02-17T14:48:53;1.10;;;0.83;;
7761;SDS011;3925;48.636;9.516;2023-02-17T14:51:21;1.00;;;1.00;;
7761;SDS011;3925;48.636;9.516;2023-02-17T14:53:51;4.93;;;1.17;;
7761;SDS011;3925;48.636;9.516;2023-02-17T14:56:19;1.30;;;1.20;;
7761;SDS011;3925;48.636;9.516;2023-02-17T14:58:48;2.33;;;1.20;;
7761;SDS011;3925;48.636;9.516;2023-02-17T15:01:17;0.70;;;0.70;;
7761;SDS011;3925;48.636;9.516;2023-02-17T15:03:45;0.97;;;0.97;;
7761;SDS011;3925;48.636;9.516;2023-02-17T15:06:15;0.90;;;0.80;;
7761;SDS011;3925;48.636;9.516;2023-02-17T15:08:43;0.90;;;0.80;;
7761;SDS011;3925;48.636;9.516;2023-02-17T15:11:15;2.33;;;0.80;;
7761;SDS011;3925;48.636;9.516;2023-02-17T15:13:44;2.10;;;1.07;;
7761;SDS011;3925;48.636;9.516;2023-02-17T15:16:11;2.70;;;0.80;;
7761;SDS011;3925;48.636;9.516;2023-02-17T15:18:40;2.63;;;1.07;;
7761;SDS011;3925;48.636;9.516;2023-02-17T15:21:16;1.60;;;1.10;;
7761;SDS011;3925;48.636;9.516;2023-02-17T15:23:49;1.40;;;0.90;;
7761;SDS011;3925;48.636;9.516;2023-02-17T15:26:16;1.37;;;1.00;;
7761;SDS011;3925;48.636;9.516;2023-02-17T15:28:43;2.17;;;1.40;;
7761;SDS011;3925;48.636;9.516;2023-02-17T15:31:10;2.70;;;1.60;;
7761;SDS011;3925;48.636;9.516;2023-02-17T15:33:39;2.07;;;1.10;;
7761;SDS011;3925;48.636;9.516;2023-02-17T15:36:08;1.20;;;1.00;;